Airlie, Virginia
Current Conditions -  °F | °C
As of 10:35 AM on Sunday 23 Nov 2014 (Local Time) from KHWY Reporting Station
Clear Clear  
Wind Chill: 47°   Ceiling: Unl
Heat Index: 47°   Visibility: 10mi
Dew Point: 30°   Wind: 3mph
Humidity: 52%   Direction: 220°SW
Pressure: 30.19"   Gusts: NA
Location:  38.6876°N, 77.819°W
Report Text: KHWY 231535Z AUTO 22003KT 10SM CLR 08/M01 A3019 RMK AO2 T00821011
Loading
Personal Weather Stations






























Interactive Weather Map New forecast layout! Learn more

10-Day Weather Forecast

Advertisements
Track Severe Weather on mobile